Dead River Township, Maine
Current Conditions -  °F | °C
As of 12:55 PM on Monday 24 Nov 2014 (Local Time) from KWVL Reporting Station
Overcast Overcast  
Wind Chill: 57°   Ceiling: 600
Heat Index: 57°   Visibility: 3mi
Dew Point: 54°   Wind: 9mph
Humidity: 88%   Direction: 180°S
Pressure: 29.59"   Gusts: 22mph
Location:  45.0341°N, 70.0886°W
Report Text: KWVL 241755Z 18008G19KT 3SM OVC006 14/12 A2959 RMK AO1 P0003 60056 10140 20070 57054
Loading
Personal Weather Stations






























Interactive Weather Map New forecast layout! Learn more

10-Day Weather Forecast

Advertisements
Track Severe Weather on mobile